Readfield, Maine
Current Conditions -  °F | °C
As of 5:53 PM on Monday 24 Nov 2014 (Local Time) from KAUG Reporting Station
Overcast Overcast  
Wind Chill: 58°   Ceiling: 300
Heat Index: 58°   Visibility: 7mi
Dew Point: 57°   Wind: 10mph
Humidity: 97%   Direction: 190°S
Pressure: 29.53"   Gusts: 23mph
Location:  44.39°N, 69.97°W
Report Text: KAUG 242253Z AUTO 19009G20KT 7SM OVC003 14/14 A2953 RMK AO2 SLP002 T01440139
Loading
Personal Weather Stations






























Interactive Weather Map New forecast layout! Learn more

10-Day Weather Forecast

Advertisements
Track Severe Weather on mobile